Back to top

Buffalo, WY weather

Johnson County Airport, Buffalo, WY: 6/04/2020 04:53
Visibility10 statute milessun with a few clouds
View 7-Day Forecast
Area Summary
Sky/CloudsFew at 12000ft
Weather [last 24 hours]None [rain began 20:01 ended 20:07 ]
Pressure29.91 in.Hg (1013 hPa)
Dew Point45 °F (7.2 °C)
Relative Humidity76.9 %
Last 24-Hour Precip.Trace
Reading TimePrecipitation
6-hr ending 6/3@23:53Trace
Temperature52 °F (11.1 °C)red thermometer
Reading TimeMinimum to Maximum Temperature
6-hr ending 6/3@23:5355.9 °F to 80.1 °F (13.3 °C to 26.7 °C)
6-hr ending 6/3@17:5372 °F to 81 °F (22.2 °C to 27.2 °C)
6-hr ending 6/3@11:5355 °F to 73 °F (12.8 °C to 22.8 °C)
6-hr ending 6/3@05:5353.1 °F to 64 °F (11.7 °C to 17.8 °C)
24-hr ending 6/4@00:5353.1 °F to 81 °F (11.7 °C to 27.2 °C)
Wind5.75 MPH (5 KT) green arrow pointing 180 degrees
Wind FromSouth (190 Degrees)
Rolling 24-hr Peak Wind46 MPH (40 KT) on 6/3@20:01
Rolling 24-hr Peak Wind FromWest/Southwest (250 Degrees)
Twilight Begins04:46Sunshine Yesterday
Sunrise05:22N/A
Sunset20:49
Twilight Ends21:26
METARKBYG 041053Z AUTO 19005KT 10SM FEW120 11/07 A2991 RMK AO2 SLP074 T01110072
Tags: